Hendrik-Ido-Ambacht, Netherlands
Current Conditions -  °F | °C
As of 4:25 PM on Friday 24 Oct 2014 (Local Time) from EHRD Reporting Station
Light Rain Light Rain  
Wind Chill: 55°   Ceiling: 700
Heat Index: 55°   Visibility: 2mi
Dew Point: 54°   Wind: 12mph
Humidity: 94%   Direction: 180°S
Pressure: 30"   Gusts: NA
Location:  51.84°N, 4.64°E
Report Text: EHRD 241425Z AUTO 18010KT 150V210 3200 -RADZ FEW005 BKN007OVC008 13/12 Q1016 RERA REDZ TEMPO 6000 BKN004
Loading
Personal Weather Stations






























Interactive Weather Map
Tropical Storm Tracking
New forecast layout! Learn more

10-Day Weather Forecast

Advertisements
Track Severe Weather on mobile